Aeroporto :
LOGIN :

Iscrizione | Disclaimer

   EN    FR    IT 

 










Sommario :    VFR   VFR Marginale   IFR   IFR Intensivo   IFR Molto Intensivo
Visibilità : 
Base nubi : 
>= 8 km
>= 3000ft
5 / 8 km
1000 / 3000 ft
1500m / 5 km
500 / 1000 ft
800 / 1500m
200 / 500 ft
< 800m
< 200 ft
Simboli :   Temporali  Nebbia  Neve Forte  Precipitazioni Forti  Vento > 20 kt
SIGMETs :   Varie  Temporali  Ghiacco  Turbolenza  Onda orograficha  Ceneri Vulcaniche






- Altitudine del aeroporto : 681 ft
- Codice IATA : LBA


EGNM - Leeds Bradford

ULTIMO METAR :
  • 090150Z 02009KT 9999 SCT008 13/11 Q1024

METARs OBSOLETI :
  • 090120Z 01011KT 9999 SCT010 13/11 Q1024
  • 090050Z 02010KT 9999 SCT009 13/12 Q1024
  • 090020Z 02009KT 9999 SCT009 13/11 Q1024
  • 082350Z 02009KT 350V050 9999 SCT010 13/11 Q1025
  • 082320Z 02009KT 9999 SCT010 13/11 Q1025

TAF TAF EGNM
Valido dal 09 a 00 ore il 10 a 00 ore UTC


082251Z 0900/0924 02007KT 9999 FEW045
BECMG 0900/0903 BKN008
PROB40 0902/0907 BKN004
PROB30
TEMPO 0902/0907 6000 SHRA
BECMG 0909/0912 SCT020
ATIS : +44 113 250 9696 (x2489)



MetMap, La meteo Aeronautica in un colpo d'occhio ! - Copyright ORBIFLY Dicembre 2007 - Disclaimer

ORBIFLY MET'MAP TEAM :

Programmazione e sviluppo : Alexandra Zaïnal
Concezione : Baudouin d'Aumeries
Aiuto per la programmazione : Marc-Olivier Méhu
Supporto tecnico e logistico : Manuel Goepfert
Aiuto per la traduzione : Arnaldo La Scala

Contatto : metmap@orbifly.com




FONTI E CREDITI :

   NOAA